sensor_id;sensor_type;location;lat;lon;timestamp;P1;durP1;ratioP1;P2;durP2;ratioP2
7361;SDS011;3721;44.490;11.220;2022-09-09T00:04:40;7.03;;;3.23;;
7361;SDS011;3721;44.490;11.220;2022-09-09T00:10:16;8.13;;;3.07;;
7361;SDS011;3721;44.490;11.220;2022-09-09T00:20:58;6.80;;;3.17;;
7361;SDS011;3721;44.490;11.220;2022-09-09T00:23:38;7.17;;;3.33;;
7361;SDS011;3721;44.490;11.220;2022-09-09T00:31:56;8.40;;;2.67;;
7361;SDS011;3721;44.490;11.220;2022-09-09T00:34:29;5.40;;;2.50;;
7361;SDS011;3721;44.490;11.220;2022-09-09T00:36:57;9.77;;;2.93;;
7361;SDS011;3721;44.490;11.220;2022-09-09T00:44:53;10.60;;;2.67;;
7361;SDS011;3721;44.490;11.220;2022-09-09T00:58:08;6.03;;;2.40;;
7361;SDS011;3721;44.490;11.220;2022-09-09T01:00:44;6.90;;;2.33;;
7361;SDS011;3721;44.490;11.220;2022-09-09T01:03:38;16.87;;;3.97;;
7361;SDS011;3721;44.490;11.220;2022-09-09T01:06:26;7.17;;;2.20;;
7361;SDS011;3721;44.490;11.220;2022-09-09T01:12:09;6.03;;;2.40;;
7361;SDS011;3721;44.490;11.220;2022-09-09T01:14:42;9.13;;;2.67;;
7361;SDS011;3721;44.490;11.220;2022-09-09T01:20:14;11.10;;;2.83;;
7361;SDS011;3721;44.490;11.220;2022-09-09T01:27:37;8.60;;;2.20;;
7361;SDS011;3721;44.490;11.220;2022-09-09T01:30:08;5.80;;;2.20;;
7361;SDS011;3721;44.490;11.220;2022-09-09T01:32:46;7.60;;;2.30;;
7361;SDS011;3721;44.490;11.220;2022-09-09T01:35:29;9.90;;;2.50;;
7361;SDS011;3721;44.490;11.220;2022-09-09T01:38:09;7.50;;;2.57;;
7361;SDS011;3721;44.490;11.220;2022-09-09T01:40:35;5.80;;;2.37;;
7361;SDS011;3721;44.490;11.220;2022-09-09T01:43:01;4.30;;;2.13;;
7361;SDS011;3721;44.490;11.220;2022-09-09T01:45:28;6.47;;;2.57;;
7361;SDS011;3721;44.490;11.220;2022-09-09T01:47:54;10.50;;;3.00;;
7361;SDS011;3721;44.490;11.220;2022-09-09T01:50:20;6.90;;;2.27;;
7361;SDS011;3721;44.490;11.220;2022-09-09T01:52:46;8.27;;;2.50;;
7361;SDS011;3721;44.490;11.220;2022-09-09T01:55:15;8.27;;;3.77;;
7361;SDS011;3721;44.490;11.220;2022-09-09T02:00:57;8.00;;;2.80;;
7361;SDS011;3721;44.490;11.220;2022-09-09T02:03:50;8.50;;;2.60;;
7361;SDS011;3721;44.490;11.220;2022-09-09T02:08:59;5.30;;;2.47;;
7361;SDS011;3721;44.490;11.220;2022-09-09T02:11:28;5.47;;;2.47;;
7361;SDS011;3721;44.490;11.220;2022-09-09T02:14:17;4.70;;;2.50;;
7361;SDS011;3721;44.490;11.220;2022-09-09T02:19:22;8.40;;;2.23;;
7361;SDS011;3721;44.490;11.220;2022-09-09T02:21:52;9.50;;;2.40;;
7361;SDS011;3721;44.490;11.220;2022-09-09T02:24:21;7.47;;;2.30;;
7361;SDS011;3721;44.490;11.220;2022-09-09T02:26:48;6.33;;;2.10;;
7361;SDS011;3721;44.490;11.220;2022-09-09T02:29:18;10.33;;;2.60;;
7361;SDS011;3721;44.490;11.220;2022-09-09T02:31:47;12.60;;;2.43;;
7361;SDS011;3721;44.490;11.220;2022-09-09T02:34:15;7.60;;;2.50;;
7361;SDS011;3721;44.490;11.220;2022-09-09T02:36:45;4.77;;;2.20;;
7361;SDS011;3721;44.490;11.220;2022-09-09T02:39:12;7.37;;;2.20;;
7361;SDS011;3721;44.490;11.220;2022-09-09T02:41:39;4.97;;;2.53;;
7361;SDS011;3721;44.490;11.220;2022-09-09T02:44:12;7.00;;;2.40;;
7361;SDS011;3721;44.490;11.220;2022-09-09T02:46:45;5.90;;;2.13;;
7361;SDS011;3721;44.490;11.220;2022-09-09T02:52:02;8.10;;;2.47;;
7361;SDS011;3721;44.490;11.220;2022-09-09T02:54:32;5.83;;;2.37;;
7361;SDS011;3721;44.490;11.220;2022-09-09T02:57:05;9.63;;;2.73;;
7361;SDS011;3721;44.490;11.220;2022-09-09T02:59:44;6.40;;;2.00;;
7361;SDS011;3721;44.490;11.220;2022-09-09T03:02:11;4.40;;;1.87;;
7361;SDS011;3721;44.490;11.220;2022-09-09T03:04:38;8.97;;;2.50;;
7361;SDS011;3721;44.490;11.220;2022-09-09T03:07:05;7.07;;;2.37;;
7361;SDS011;3721;44.490;11.220;2022-09-09T03:09:31;7.43;;;2.33;;
7361;SDS011;3721;44.490;11.220;2022-09-09T03:12:05;4.50;;;2.13;;
7361;SDS011;3721;44.490;11.220;2022-09-09T03:14:32;6.20;;;2.20;;
7361;SDS011;3721;44.490;11.220;2022-09-09T03:16:57;6.23;;;2.33;;
7361;SDS011;3721;44.490;11.220;2022-09-09T03:19:26;7.47;;;2.20;;
7361;SDS011;3721;44.490;11.220;2022-09-09T03:21:53;10.87;;;1.97;;
7361;SDS011;3721;44.490;11.220;2022-09-09T03:24:19;5.93;;;2.00;;
7361;SDS011;3721;44.490;11.220;2022-09-09T03:26:45;6.07;;;2.70;;
7361;SDS011;3721;44.490;11.220;2022-09-09T03:29:11;6.13;;;2.07;;
7361;SDS011;3721;44.490;11.220;2022-09-09T03:31:37;4.50;;;2.10;;
7361;SDS011;3721;44.490;11.220;2022-09-09T03:34:03;6.50;;;2.03;;
7361;SDS011;3721;44.490;11.220;2022-09-09T03:36:30;11.57;;;2.30;;
7361;SDS011;3721;44.490;11.220;2022-09-09T03:38:56;7.07;;;2.90;;
7361;SDS011;3721;44.490;11.220;2022-09-09T03:41:23;5.60;;;2.10;;
7361;SDS011;3721;44.490;11.220;2022-09-09T03:43:50;7.60;;;2.17;;
7361;SDS011;3721;44.490;11.220;2022-09-09T03:46:16;6.47;;;3.10;;
7361;SDS011;3721;44.490;11.220;2022-09-09T03:48:43;6.70;;;2.33;;
7361;SDS011;3721;44.490;11.220;2022-09-09T03:51:09;5.03;;;1.87;;
7361;SDS011;3721;44.490;11.220;2022-09-09T03:53:35;6.33;;;2.27;;
7361;SDS011;3721;44.490;11.220;2022-09-09T03:56:02;5.20;;;2.20;;
7361;SDS011;3721;44.490;11.220;2022-09-09T03:58:31;5.00;;;2.20;;
7361;SDS011;3721;44.490;11.220;2022-09-09T04:00:59;5.27;;;2.20;;
7361;SDS011;3721;44.490;11.220;2022-09-09T04:03:28;8.70;;;2.60;;
7361;SDS011;3721;44.490;11.220;2022-09-09T04:05:55;8.83;;;2.33;;
7361;SDS011;3721;44.490;11.220;2022-09-09T04:08:23;6.43;;;2.40;;
7361;SDS011;3721;44.490;11.220;2022-09-09T04:10:52;16.07;;;2.43;;
7361;SDS011;3721;44.490;11.220;2022-09-09T04:13:22;8.23;;;2.07;;
7361;SDS011;3721;44.490;11.220;2022-09-09T04:15:51;12.47;;;2.40;;
7361;SDS011;3721;44.490;11.220;2022-09-09T04:18:18;6.03;;;2.67;;
7361;SDS011;3721;44.490;11.220;2022-09-09T04:20:47;8.63;;;2.17;;
7361;SDS011;3721;44.490;11.220;2022-09-09T04:23:15;16.90;;;2.40;;
7361;SDS011;3721;44.490;11.220;2022-09-09T04:25:46;7.00;;;2.50;;
7361;SDS011;3721;44.490;11.220;2022-09-09T04:28:17;6.63;;;1.87;;
7361;SDS011;3721;44.490;11.220;2022-09-09T04:30:45;6.07;;;2.20;;
7361;SDS011;3721;44.490;11.220;2022-09-09T04:33:12;5.33;;;1.90;;
7361;SDS011;3721;44.490;11.220;2022-09-09T04:35:39;8.33;;;2.50;;
7361;SDS011;3721;44.490;11.220;2022-09-09T04:38:13;7.73;;;2.30;;
7361;SDS011;3721;44.490;11.220;2022-09-09T04:40:43;5.50;;;2.13;;
7361;SDS011;3721;44.490;11.220;2022-09-09T04:43:11;10.17;;;2.37;;
7361;SDS011;3721;44.490;11.220;2022-09-09T04:45:39;6.77;;;2.20;;
7361;SDS011;3721;44.490;11.220;2022-09-09T04:48:05;7.73;;;2.47;;
7361;SDS011;3721;44.490;11.220;2022-09-09T04:50:32;6.23;;;2.30;;
7361;SDS011;3721;44.490;11.220;2022-09-09T04:53:01;11.60;;;2.37;;
7361;SDS011;3721;44.490;11.220;2022-09-09T04:55:29;6.60;;;2.07;;
7361;SDS011;3721;44.490;11.220;2022-09-09T04:57:56;6.93;;;2.13;;
7361;SDS011;3721;44.490;11.220;2022-09-09T05:00:22;5.27;;;1.90;;
7361;SDS011;3721;44.490;11.220;2022-09-09T05:02:51;12.20;;;2.43;;
7361;SDS011;3721;44.490;11.220;2022-09-09T05:05:17;6.30;;;2.03;;
7361;SDS011;3721;44.490;11.220;2022-09-09T05:07:43;6.67;;;2.17;;
7361;SDS011;3721;44.490;11.220;2022-09-09T05:10:09;6.00;;;2.30;;
7361;SDS011;3721;44.490;11.220;2022-09-09T05:12:35;5.33;;;1.67;;
7361;SDS011;3721;44.490;11.220;2022-09-09T05:15:01;4.93;;;2.03;;
7361;SDS011;3721;44.490;11.220;2022-09-09T05:17:27;6.83;;;2.50;;
7361;SDS011;3721;44.490;11.220;2022-09-09T05:19:52;8.10;;;2.67;;
7361;SDS011;3721;44.490;11.220;2022-09-09T05:22:21;8.10;;;2.30;;
7361;SDS011;3721;44.490;11.220;2022-09-09T05:24:48;6.30;;;2.10;;
7361;SDS011;3721;44.490;11.220;2022-09-09T05:27:16;8.87;;;2.70;;
7361;SDS011;3721;44.490;11.220;2022-09-09T05:29:44;9.60;;;2.43;;
7361;SDS011;3721;44.490;11.220;2022-09-09T05:32:10;9.00;;;2.30;;
7361;SDS011;3721;44.490;11.220;2022-09-09T05:34:36;12.50;;;2.97;;
7361;SDS011;3721;44.490;11.220;2022-09-09T05:37:02;5.47;;;1.90;;
7361;SDS011;3721;44.490;11.220;2022-09-09T05:39:29;7.33;;;2.20;;
7361;SDS011;3721;44.490;11.220;2022-09-09T05:41:55;8.13;;;2.87;;
7361;SDS011;3721;44.490;11.220;2022-09-09T05:44:21;5.80;;;2.47;;
7361;SDS011;3721;44.490;11.220;2022-09-09T05:46:49;3.70;;;2.27;;
7361;SDS011;3721;44.490;11.220;2022-09-09T05:49:14;9.33;;;2.43;;
7361;SDS011;3721;44.490;11.220;2022-09-09T05:51:40;7.50;;;2.83;;
7361;SDS011;3721;44.490;11.220;2022-09-09T05:54:08;6.90;;;2.27;;
7361;SDS011;3721;44.490;11.220;2022-09-09T05:56:34;10.03;;;2.50;;
7361;SDS011;3721;44.490;11.220;2022-09-09T05:59:00;3.80;;;1.90;;
7361;SDS011;3721;44.490;11.220;2022-09-09T06:01:27;11.33;;;2.50;;
7361;SDS011;3721;44.490;11.220;2022-09-09T06:03:55;12.57;;;2.77;;
7361;SDS011;3721;44.490;11.220;2022-09-09T06:06:22;7.70;;;2.47;;
7361;SDS011;3721;44.490;11.220;2022-09-09T06:08:51;5.43;;;2.43;;
7361;SDS011;3721;44.490;11.220;2022-09-09T06:11:19;10.37;;;2.80;;
7361;SDS011;3721;44.490;11.220;2022-09-09T06:13:47;8.50;;;2.93;;
7361;SDS011;3721;44.490;11.220;2022-09-09T06:16:17;9.03;;;3.87;;
7361;SDS011;3721;44.490;11.220;2022-09-09T06:18:43;6.57;;;3.10;;
7361;SDS011;3721;44.490;11.220;2022-09-09T06:21:26;6.70;;;2.73;;
7361;SDS011;3721;44.490;11.220;2022-09-09T06:23:53;8.97;;;2.87;;
7361;SDS011;3721;44.490;11.220;2022-09-09T06:26:20;11.93;;;2.73;;
7361;SDS011;3721;44.490;11.220;2022-09-09T06:28:48;6.77;;;2.27;;
7361;SDS011;3721;44.490;11.220;2022-09-09T06:31:18;8.17;;;2.60;;
7361;SDS011;3721;44.490;11.220;2022-09-09T06:33:47;4.67;;;2.33;;
7361;SDS011;3721;44.490;11.220;2022-09-09T06:36:18;8.17;;;2.67;;
7361;SDS011;3721;44.490;11.220;2022-09-09T06:38:45;8.57;;;2.53;;
7361;SDS011;3721;44.490;11.220;2022-09-09T06:41:12;8.53;;;2.50;;
7361;SDS011;3721;44.490;11.220;2022-09-09T06:43:39;7.57;;;2.70;;
7361;SDS011;3721;44.490;11.220;2022-09-09T06:46:06;13.50;;;2.93;;
7361;SDS011;3721;44.490;11.220;2022-09-09T06:48:38;7.97;;;2.60;;
7361;SDS011;3721;44.490;11.220;2022-09-09T06:51:17;5.90;;;2.90;;
7361;SDS011;3721;44.490;11.220;2022-09-09T06:53:46;5.70;;;2.70;;
7361;SDS011;3721;44.490;11.220;2022-09-09T06:58:41;9.93;;;3.83;;
7361;SDS011;3721;44.490;11.220;2022-09-09T07:01:09;12.07;;;2.90;;
7361;SDS011;3721;44.490;11.220;2022-09-09T07:03:37;9.27;;;2.97;;
7361;SDS011;3721;44.490;11.220;2022-09-09T07:06:04;7.90;;;2.77;;
7361;SDS011;3721;44.490;11.220;2022-09-09T07:08:31;8.27;;;2.77;;
7361;SDS011;3721;44.490;11.220;2022-09-09T07:11:03;11.97;;;3.30;;
7361;SDS011;3721;44.490;11.220;2022-09-09T07:13:30;13.90;;;2.93;;
7361;SDS011;3721;44.490;11.220;2022-09-09T07:16:03;8.80;;;3.30;;
7361;SDS011;3721;44.490;11.220;2022-09-09T07:18:33;10.20;;;3.00;;
7361;SDS011;3721;44.490;11.220;2022-09-09T07:21:03;10.80;;;2.77;;
7361;SDS011;3721;44.490;11.220;2022-09-09T07:23:30;6.80;;;3.40;;
7361;SDS011;3721;44.490;11.220;2022-09-09T07:25:56;7.90;;;3.17;;
7361;SDS011;3721;44.490;11.220;2022-09-09T07:28:23;8.70;;;2.90;;
7361;SDS011;3721;44.490;11.220;2022-09-09T07:30:53;10.37;;;3.00;;
7361;SDS011;3721;44.490;11.220;2022-09-09T07:33:19;7.10;;;2.90;;
7361;SDS011;3721;44.490;11.220;2022-09-09T07:35:45;7.63;;;3.63;;
7361;SDS011;3721;44.490;11.220;2022-09-09T07:38:11;9.67;;;3.20;;
7361;SDS011;3721;44.490;11.220;2022-09-09T07:40:37;11.87;;;2.67;;
7361;SDS011;3721;44.490;11.220;2022-09-09T07:43:03;8.73;;;3.10;;
7361;SDS011;3721;44.490;11.220;2022-09-09T07:45:29;10.37;;;3.17;;
7361;SDS011;3721;44.490;11.220;2022-09-09T07:47:57;8.87;;;3.03;;
7361;SDS011;3721;44.490;11.220;2022-09-09T07:50:23;9.40;;;2.63;;
7361;SDS011;3721;44.490;11.220;2022-09-09T07:52:52;7.13;;;2.63;;
7361;SDS011;3721;44.490;11.220;2022-09-09T07:55:19;7.93;;;2.60;;
7361;SDS011;3721;44.490;11.220;2022-09-09T07:57:45;9.43;;;3.20;;
7361;SDS011;3721;44.490;11.220;2022-09-09T08:00:12;7.23;;;2.87;;
7361;SDS011;3721;44.490;11.220;2022-09-09T08:02:40;6.17;;;2.47;;
7361;SDS011;3721;44.490;11.220;2022-09-09T08:05:06;8.43;;;3.03;;
7361;SDS011;3721;44.490;11.220;2022-09-09T08:07:32;11.87;;;3.50;;
7361;SDS011;3721;44.490;11.220;2022-09-09T08:09:57;14.77;;;2.87;;
7361;SDS011;3721;44.490;11.220;2022-09-09T08:12:23;8.67;;;3.10;;
7361;SDS011;3721;44.490;11.220;2022-09-09T08:14:49;8.03;;;3.00;;
7361;SDS011;3721;44.490;11.220;2022-09-09T08:17:16;8.60;;;3.40;;
7361;SDS011;3721;44.490;11.220;2022-09-09T08:19:42;9.13;;;3.47;;
7361;SDS011;3721;44.490;11.220;2022-09-09T08:22:09;8.77;;;3.67;;
7361;SDS011;3721;44.490;11.220;2022-09-09T08:24:35;8.03;;;3.90;;
7361;SDS011;3721;44.490;11.220;2022-09-09T08:27:01;7.80;;;4.50;;
7361;SDS011;3721;44.490;11.220;2022-09-09T08:29:27;10.57;;;4.40;;
7361;SDS011;3721;44.490;11.220;2022-09-09T08:31:54;13.10;;;4.60;;
7361;SDS011;3721;44.490;11.220;2022-09-09T08:34:22;8.50;;;4.03;;
7361;SDS011;3721;44.490;11.220;2022-09-09T08:36:49;9.27;;;3.97;;
7361;SDS011;3721;44.490;11.220;2022-09-09T08:39:16;5.97;;;3.20;;
7361;SDS011;3721;44.490;11.220;2022-09-09T08:49:59;8.20;;;3.47;;
7361;SDS011;3721;44.490;11.220;2022-09-09T08:53:20;7.57;;;3.30;;
7361;SDS011;3721;44.490;11.220;2022-09-09T08:58:18;6.73;;;3.30;;
7361;SDS011;3721;44.490;11.220;2022-09-09T09:09:01;7.47;;;3.00;;
7361;SDS011;3721;44.490;11.220;2022-09-09T09:11:34;9.73;;;2.83;;
7361;SDS011;3721;44.490;11.220;2022-09-09T09:14:03;7.70;;;2.50;;
7361;SDS011;3721;44.490;11.220;2022-09-09T09:19:26;5.57;;;2.40;;
7361;SDS011;3721;44.490;11.220;2022-09-09T09:21:58;9.33;;;2.77;;
7361;SDS011;3721;44.490;11.220;2022-09-09T09:27:15;7.43;;;2.53;;
7361;SDS011;3721;44.490;11.220;2022-09-09T09:29:56;7.93;;;2.30;;
7361;SDS011;3721;44.490;11.220;2022-09-09T09:32:23;8.17;;;2.60;;
7361;SDS011;3721;44.490;11.220;2022-09-09T09:34:51;6.10;;;2.60;;
7361;SDS011;3721;44.490;11.220;2022-09-09T09:37:31;8.10;;;2.53;;
7361;SDS011;3721;44.490;11.220;2022-09-09T09:42:35;4.93;;;2.20;;
7361;SDS011;3721;44.490;11.220;2022-09-09T09:48:08;8.43;;;2.50;;
7361;SDS011;3721;44.490;11.220;2022-09-09T09:50:39;7.03;;;2.20;;
7361;SDS011;3721;44.490;11.220;2022-09-09T09:53:21;7.87;;;2.43;;
7361;SDS011;3721;44.490;11.220;2022-09-09T09:55:52;7.07;;;2.50;;
7361;SDS011;3721;44.490;11.220;2022-09-09T09:58:21;8.17;;;2.30;;
7361;SDS011;3721;44.490;11.220;2022-09-09T10:00:47;12.90;;;2.50;;
7361;SDS011;3721;44.490;11.220;2022-09-09T10:03:28;7.23;;;2.50;;
7361;SDS011;3721;44.490;11.220;2022-09-09T10:05:56;7.40;;;2.90;;
7361;SDS011;3721;44.490;11.220;2022-09-09T10:08:25;6.80;;;3.50;;
7361;SDS011;3721;44.490;11.220;2022-09-09T10:21:32;8.57;;;2.73;;
7361;SDS011;3721;44.490;11.220;2022-09-09T10:24:23;8.37;;;3.33;;
7361;SDS011;3721;44.490;11.220;2022-09-09T10:27:04;7.53;;;2.87;;
7361;SDS011;3721;44.490;11.220;2022-09-09T10:38:30;5.50;;;2.30;;
7361;SDS011;3721;44.490;11.220;2022-09-09T10:57:47;6.37;;;2.10;;
7361;SDS011;3721;44.490;11.220;2022-09-09T11:00:37;7.23;;;2.20;;
7361;SDS011;3721;44.490;11.220;2022-09-09T11:03:15;5.30;;;2.20;;
7361;SDS011;3721;44.490;11.220;2022-09-09T11:06:06;4.20;;;2.03;;
7361;SDS011;3721;44.490;11.220;2022-09-09T11:08:38;6.13;;;2.00;;
7361;SDS011;3721;44.490;11.220;2022-09-09T11:16:15;5.40;;;2.20;;
7361;SDS011;3721;44.490;11.220;2022-09-09T11:22:02;4.77;;;2.20;;
7361;SDS011;3721;44.490;11.220;2022-09-09T11:27:30;5.33;;;2.10;;
7361;SDS011;3721;44.490;11.220;2022-09-09T11:30:04;5.37;;;1.73;;
7361;SDS011;3721;44.490;11.220;2022-09-09T11:36:11;5.07;;;2.07;;
7361;SDS011;3721;44.490;11.220;2022-09-09T11:38:47;11.40;;;2.10;;
7361;SDS011;3721;44.490;11.220;2022-09-09T11:41:38;5.20;;;1.87;;
7361;SDS011;3721;44.490;11.220;2022-09-09T11:44:16;8.03;;;2.20;;
7361;SDS011;3721;44.490;11.220;2022-09-09T11:46:49;3.97;;;1.60;;
7361;SDS011;3721;44.490;11.220;2022-09-09T11:49:27;5.17;;;2.30;;
7361;SDS011;3721;44.490;11.220;2022-09-09T11:51:55;5.67;;;1.90;;
7361;SDS011;3721;44.490;11.220;2022-09-09T11:54:28;6.60;;;1.90;;
7361;SDS011;3721;44.490;11.220;2022-09-09T11:56:58;5.90;;;2.10;;
7361;SDS011;3721;44.490;11.220;2022-09-09T11:59:25;3.43;;;1.57;;
7361;SDS011;3721;44.490;11.220;2022-09-09T12:02:03;3.80;;;1.80;;
7361;SDS011;3721;44.490;11.220;2022-09-09T12:05:05;7.50;;;1.97;;
7361;SDS011;3721;44.490;11.220;2022-09-09T12:07:48;11.23;;;2.30;;
7361;SDS011;3721;44.490;11.220;2022-09-09T12:10:29;8.40;;;2.17;;
7361;SDS011;3721;44.490;11.220;2022-09-09T12:15:52;7.70;;;2.40;;
7361;SDS011;3721;44.490;11.220;2022-09-09T12:18:23;4.13;;;1.80;;
7361;SDS011;3721;44.490;11.220;2022-09-09T12:24:11;4.63;;;2.30;;
7361;SDS011;3721;44.490;11.220;2022-09-09T12:26:57;6.57;;;2.40;;
7361;SDS011;3721;44.490;11.220;2022-09-09T12:29:37;7.40;;;2.30;;
7361;SDS011;3721;44.490;11.220;2022-09-09T12:32:24;4.43;;;1.90;;
7361;SDS011;3721;44.490;11.220;2022-09-09T12:37:32;5.77;;;2.30;;
7361;SDS011;3721;44.490;11.220;2022-09-09T12:40:00;6.47;;;1.90;;
7361;SDS011;3721;44.490;11.220;2022-09-09T12:42:31;9.80;;;2.30;;
7361;SDS011;3721;44.490;11.220;2022-09-09T12:45:01;6.30;;;2.53;;
7361;SDS011;3721;44.490;11.220;2022-09-09T12:47:44;11.83;;;2.20;;
7361;SDS011;3721;44.490;11.220;2022-09-09T12:50:17;5.80;;;2.77;;
7361;SDS011;3721;44.490;11.220;2022-09-09T12:52:47;5.57;;;2.63;;
7361;SDS011;3721;44.490;11.220;2022-09-09T12:55:19;5.60;;;2.97;;
7361;SDS011;3721;44.490;11.220;2022-09-09T12:57:50;7.67;;;2.50;;
7361;SDS011;3721;44.490;11.220;2022-09-09T13:00:18;5.30;;;2.80;;
7361;SDS011;3721;44.490;11.220;2022-09-09T13:02:57;5.07;;;2.73;;
7361;SDS011;3721;44.490;11.220;2022-09-09T13:05:28;5.73;;;2.33;;
7361;SDS011;3721;44.490;11.220;2022-09-09T13:08:02;7.27;;;2.77;;
7361;SDS011;3721;44.490;11.220;2022-09-09T13:10:31;6.53;;;2.70;;
7361;SDS011;3721;44.490;11.220;2022-09-09T13:13:01;5.93;;;2.47;;
7361;SDS011;3721;44.490;11.220;2022-09-09T13:15:28;4.80;;;2.57;;
7361;SDS011;3721;44.490;11.220;2022-09-09T13:17:58;9.83;;;3.13;;
7361;SDS011;3721;44.490;11.220;2022-09-09T13:20:26;7.80;;;2.67;;
7361;SDS011;3721;44.490;11.220;2022-09-09T13:22:53;8.10;;;2.67;;
7361;SDS011;3721;44.490;11.220;2022-09-09T13:25:24;7.10;;;2.50;;
7361;SDS011;3721;44.490;11.220;2022-09-09T13:30:31;5.97;;;1.90;;
7361;SDS011;3721;44.490;11.220;2022-09-09T13:38:24;7.93;;;2.43;;
7361;SDS011;3721;44.490;11.220;2022-09-09T13:40:57;7.90;;;2.23;;
7361;SDS011;3721;44.490;11.220;2022-09-09T13:43:52;4.13;;;2.00;;
7361;SDS011;3721;44.490;11.220;2022-09-09T13:48:58;6.93;;;2.63;;
7361;SDS011;3721;44.490;11.220;2022-09-09T13:51:44;5.53;;;2.60;;
7361;SDS011;3721;44.490;11.220;2022-09-09T13:54:15;9.73;;;2.23;;
7361;SDS011;3721;44.490;11.220;2022-09-09T13:56:42;6.13;;;2.30;;
7361;SDS011;3721;44.490;11.220;2022-09-09T13:59:12;5.60;;;2.27;;
7361;SDS011;3721;44.490;11.220;2022-09-09T14:01:40;6.90;;;2.40;;
7361;SDS011;3721;44.490;11.220;2022-09-09T14:04:06;6.47;;;2.60;;
7361;SDS011;3721;44.490;11.220;2022-09-09T14:06:32;4.23;;;2.40;;
7361;SDS011;3721;44.490;11.220;2022-09-09T14:09:02;4.70;;;2.27;;
7361;SDS011;3721;44.490;11.220;2022-09-09T14:11:28;8.40;;;2.47;;
7361;SDS011;3721;44.490;11.220;2022-09-09T14:13:54;4.37;;;2.43;;
7361;SDS011;3721;44.490;11.220;2022-09-09T14:16:20;8.50;;;2.60;;
7361;SDS011;3721;44.490;11.220;2022-09-09T14:18:46;7.73;;;3.33;;
7361;SDS011;3721;44.490;11.220;2022-09-09T14:21:12;11.60;;;3.17;;
7361;SDS011;3721;44.490;11.220;2022-09-09T14:23:39;7.90;;;3.40;;
7361;SDS011;3721;44.490;11.220;2022-09-09T14:26:05;6.87;;;2.63;;
7361;SDS011;3721;44.490;11.220;2022-09-09T14:28:32;11.87;;;2.90;;
7361;SDS011;3721;44.490;11.220;2022-09-09T14:31:01;7.33;;;2.50;;
7361;SDS011;3721;44.490;11.220;2022-09-09T14:33:28;6.87;;;2.50;;
7361;SDS011;3721;44.490;11.220;2022-09-09T14:35:58;12.43;;;2.93;;
7361;SDS011;3721;44.490;11.220;2022-09-09T14:38:25;9.47;;;2.60;;
7361;SDS011;3721;44.490;11.220;2022-09-09T14:40:55;5.30;;;2.47;;
7361;SDS011;3721;44.490;11.220;2022-09-09T14:43:21;9.30;;;2.13;;
7361;SDS011;3721;44.490;11.220;2022-09-09T14:45:47;5.43;;;2.40;;
7361;SDS011;3721;44.490;11.220;2022-09-09T14:48:13;7.63;;;2.90;;
7361;SDS011;3721;44.490;11.220;2022-09-09T14:50:40;6.70;;;2.77;;
7361;SDS011;3721;44.490;11.220;2022-09-09T14:53:06;4.57;;;2.57;;
7361;SDS011;3721;44.490;11.220;2022-09-09T14:55:34;5.63;;;2.63;;
7361;SDS011;3721;44.490;11.220;2022-09-09T14:58:00;6.67;;;2.83;;
7361;SDS011;3721;44.490;11.220;2022-09-09T15:00:26;5.77;;;2.70;;
7361;SDS011;3721;44.490;11.220;2022-09-09T15:02:52;7.53;;;2.87;;
7361;SDS011;3721;44.490;11.220;2022-09-09T15:05:19;5.93;;;2.77;;
7361;SDS011;3721;44.490;11.220;2022-09-09T15:07:45;8.00;;;2.63;;
7361;SDS011;3721;44.490;11.220;2022-09-09T15:10:11;6.40;;;2.50;;
7361;SDS011;3721;44.490;11.220;2022-09-09T15:12:37;8.63;;;2.80;;
7361;SDS011;3721;44.490;11.220;2022-09-09T15:15:03;4.47;;;2.40;;
7361;SDS011;3721;44.490;11.220;2022-09-09T15:17:30;7.87;;;2.67;;
7361;SDS011;3721;44.490;11.220;2022-09-09T15:19:56;7.57;;;2.57;;
7361;SDS011;3721;44.490;11.220;2022-09-09T15:22:22;7.43;;;3.10;;
7361;SDS011;3721;44.490;11.220;2022-09-09T15:24:49;5.07;;;2.50;;
7361;SDS011;3721;44.490;11.220;2022-09-09T15:27:15;7.17;;;3.13;;
7361;SDS011;3721;44.490;11.220;2022-09-09T15:29:42;6.83;;;2.60;;
7361;SDS011;3721;44.490;11.220;2022-09-09T15:32:09;7.00;;;2.83;;
7361;SDS011;3721;44.490;11.220;2022-09-09T15:34:34;5.47;;;2.63;;
7361;SDS011;3721;44.490;11.220;2022-09-09T15:37:00;12.27;;;3.50;;
7361;SDS011;3721;44.490;11.220;2022-09-09T15:39:26;7.70;;;2.63;;
7361;SDS011;3721;44.490;11.220;2022-09-09T15:41:52;8.50;;;2.97;;
7361;SDS011;3721;44.490;11.220;2022-09-09T15:44:18;7.30;;;3.50;;
7361;SDS011;3721;44.490;11.220;2022-09-09T15:46:50;4.10;;;2.50;;
7361;SDS011;3721;44.490;11.220;2022-09-09T15:49:19;7.87;;;3.30;;
7361;SDS011;3721;44.490;11.220;2022-09-09T15:51:50;6.40;;;3.00;;
7361;SDS011;3721;44.490;11.220;2022-09-09T15:54:21;6.63;;;2.80;;
7361;SDS011;3721;44.490;11.220;2022-09-09T15:56:55;6.03;;;2.77;;
7361;SDS011;3721;44.490;11.220;2022-09-09T15:59:23;7.80;;;2.80;;
7361;SDS011;3721;44.490;11.220;2022-09-09T16:01:50;6.70;;;2.90;;
7361;SDS011;3721;44.490;11.220;2022-09-09T16:04:18;5.90;;;2.83;;
7361;SDS011;3721;44.490;11.220;2022-09-09T16:06:49;9.50;;;3.17;;
7361;SDS011;3721;44.490;11.220;2022-09-09T16:09:15;6.73;;;2.77;;
7361;SDS011;3721;44.490;11.220;2022-09-09T16:11:41;13.53;;;3.30;;
7361;SDS011;3721;44.490;11.220;2022-09-09T16:14:07;5.60;;;2.97;;
7361;SDS011;3721;44.490;11.220;2022-09-09T16:16:33;5.93;;;2.80;;
7361;SDS011;3721;44.490;11.220;2022-09-09T16:19:01;5.53;;;2.87;;
7361;SDS011;3721;44.490;11.220;2022-09-09T16:21:30;8.17;;;3.33;;
7361;SDS011;3721;44.490;11.220;2022-09-09T16:24:02;7.77;;;3.23;;
7361;SDS011;3721;44.490;11.220;2022-09-09T16:26:30;5.83;;;3.27;;
7361;SDS011;3721;44.490;11.220;2022-09-09T16:28:58;8.27;;;3.10;;
7361;SDS011;3721;44.490;11.220;2022-09-09T16:31:25;5.43;;;3.13;;
7361;SDS011;3721;44.490;11.220;2022-09-09T16:33:52;6.60;;;2.73;;
7361;SDS011;3721;44.490;11.220;2022-09-09T16:36:19;4.60;;;3.07;;
7361;SDS011;3721;44.490;11.220;2022-09-09T16:38:46;9.50;;;3.17;;
7361;SDS011;3721;44.490;11.220;2022-09-09T16:41:13;8.13;;;2.90;;
7361;SDS011;3721;44.490;11.220;2022-09-09T16:43:39;5.63;;;2.97;;
7361;SDS011;3721;44.490;11.220;2022-09-09T16:46:24;9.17;;;3.23;;
7361;SDS011;3721;44.490;11.220;2022-09-09T16:48:52;9.63;;;3.00;;
7361;SDS011;3721;44.490;11.220;2022-09-09T16:51:18;4.83;;;3.03;;
7361;SDS011;3721;44.490;11.220;2022-09-09T16:53:48;7.90;;;3.00;;
7361;SDS011;3721;44.490;11.220;2022-09-09T16:56:15;5.23;;;3.00;;
7361;SDS011;3721;44.490;11.220;2022-09-09T16:58:43;8.00;;;2.90;;
7361;SDS011;3721;44.490;11.220;2022-09-09T17:01:20;6.80;;;3.10;;
7361;SDS011;3721;44.490;11.220;2022-09-09T17:03:47;6.87;;;3.27;;
7361;SDS011;3721;44.490;11.220;2022-09-09T17:06:16;7.53;;;2.60;;
7361;SDS011;3721;44.490;11.220;2022-09-09T17:08:42;9.63;;;3.37;;
7361;SDS011;3721;44.490;11.220;2022-09-09T17:11:15;8.47;;;3.40;;
7361;SDS011;3721;44.490;11.220;2022-09-09T17:13:43;7.20;;;3.10;;
7361;SDS011;3721;44.490;11.220;2022-09-09T17:16:11;9.97;;;4.70;;
7361;SDS011;3721;44.490;11.220;2022-09-09T17:18:38;7.30;;;2.77;;
7361;SDS011;3721;44.490;11.220;2022-09-09T17:21:04;8.50;;;3.10;;
7361;SDS011;3721;44.490;11.220;2022-09-09T17:23:36;5.97;;;3.13;;
7361;SDS011;3721;44.490;11.220;2022-09-09T17:26:03;8.23;;;2.90;;
7361;SDS011;3721;44.490;11.220;2022-09-09T17:28:30;8.80;;;3.30;;
7361;SDS011;3721;44.490;11.220;2022-09-09T17:30:57;8.37;;;3.23;;
7361;SDS011;3721;44.490;11.220;2022-09-09T17:33:26;7.80;;;3.47;;
7361;SDS011;3721;44.490;11.220;2022-09-09T17:35:59;8.53;;;3.50;;
7361;SDS011;3721;44.490;11.220;2022-09-09T17:38:27;6.40;;;3.20;;
7361;SDS011;3721;44.490;11.220;2022-09-09T17:41:00;8.90;;;3.60;;
7361;SDS011;3721;44.490;11.220;2022-09-09T17:43:28;7.30;;;3.73;;
7361;SDS011;3721;44.490;11.220;2022-09-09T17:45:53;7.43;;;3.60;;
7361;SDS011;3721;44.490;11.220;2022-09-09T17:48:19;6.43;;;2.87;;
7361;SDS011;3721;44.490;11.220;2022-09-09T17:50:45;6.70;;;2.90;;
7361;SDS011;3721;44.490;11.220;2022-09-09T17:53:11;6.23;;;2.80;;
7361;SDS011;3721;44.490;11.220;2022-09-09T17:55:37;6.80;;;3.00;;
7361;SDS011;3721;44.490;11.220;2022-09-09T17:58:02;5.33;;;2.80;;